Time;durP1;ratioP1;P1;durP2;ratioP2;P2;SDS_P1;SDS_P2;PMS_P1;PMS_P2;Temp;Humidity;BMP_temperature;BMP_pressure;BME280_temperature;BME280_humidity;BME280_pressure;Samples;Min_cycle;Max_cycle;Signal;HPM_P1;HPM_P2
2024/04/17 00:13:03;;;;;;;13.63;4.20;;;;;;;;;;5783374;23;20012;-83
2024/04/17 00:15:35;;;;;;;7.28;2.60;;;;;;;;;;5219301;28;20008;-85
2024/04/17 00:18:10;;;;;;;11.70;4.28;;;;;;;;;;5210749;28;20004;-83
2024/04/17 00:23:50;;;;;;;4.80;1.52;;;;;;;;;;6056397;23;20012;-83
2024/04/17 00:26:23;;;;;;;2.95;1.33;;;;;;;;;;5180716;23;20007;-82
2024/04/17 00:29:00;;;;;;;12.13;3.58;;;;;;;;;;5174855;28;20017;-82
2024/04/17 00:31:33;;;;;;;12.38;4.00;;;;;;;;;;5177988;28;20063;-82
2024/04/17 00:34:12;;;;;;;12.95;4.28;;;;;;;;;;5177539;28;20056;-82
2024/04/17 00:36:45;;;;;;;5.40;2.28;;;;;;;;;;5180078;28;20005;-82
2024/04/17 00:39:19;;;;;;;6.63;1.88;;;;;;;;;;5153182;28;19996;-84
2024/04/17 00:41:55;;;;;;;6.70;3.35;;;;;;;;;;5181887;28;20015;-84
2024/04/17 00:44:34;;;;;;;9.80;3.60;;;;;;;;;;5184618;28;20004;-83
2024/04/17 00:47:09;;;;;;;9.55;1.58;;;;;;;;;;5138649;28;20000;-84
2024/04/17 00:49:44;;;;;;;4.85;1.38;;;;;;;;;;5192786;28;20000;-84
2024/04/17 00:52:20;;;;;;;8.25;3.47;;;;;;;;;;5182300;28;20020;-84
2024/04/17 00:54:54;;;;;;;4.47;1.10;;;;;;;;;;5184309;28;20005;-84
2024/04/17 00:57:29;;;;;;;8.80;3.30;;;;;;;;;;5181752;28;20135;-85
2024/04/17 01:00:09;;;;;;;12.27;1.05;;;;;;;;;;5178328;28;20001;-83
2024/04/17 01:02:47;;;;;;;1.70;1.08;;;;;;;;;;5175260;28;20021;-82
2024/04/17 01:05:22;;;;;;;7.05;1.52;;;;;;;;;;5181254;28;20071;-83
2024/04/17 01:07:58;;;;;;;10.93;3.70;;;;;;;;;;5169888;28;20028;-82
2024/04/17 01:10:34;;;;;;;5.13;1.25;;;;;;;;;;5195526;28;20017;-82
2024/04/17 01:13:06;;;;;;;1.42;0.95;;;;;;;;;;5176539;28;20082;-84
2024/04/17 01:15:50;;;;;;;3.85;2.28;;;;;;;;;;5187281;28;20024;-83
2024/04/17 01:18:22;;;;;;;3.83;2.42;;;;;;;;;;5176713;28;20016;-83
2024/04/17 01:21:00;;;;;;;9.27;3.92;;;;;;;;;;5175496;28;20012;-83
2024/04/17 01:23:32;;;;;;;4.32;1.35;;;;;;;;;;5184255;28;20044;-84
2024/04/17 01:26:10;;;;;;;0.65;0.65;;;;;;;;;;5178085;28;20011;-83
2024/04/17 01:28:41;;;;;;;1.20;1.13;;;;;;;;;;5174468;28;20019;-84
2024/04/17 01:31:20;;;;;;;6.20;2.10;;;;;;;;;;5184282;28;20020;-83
2024/04/17 01:33:56;;;;;;;7.53;1.60;;;;;;;;;;5186334;28;20052;-84
2024/04/17 01:36:33;;;;;;;5.13;2.17;;;;;;;;;;5185365;28;20012;-83
2024/04/17 01:39:09;;;;;;;8.60;2.05;;;;;;;;;;5175042;28;20078;-83
2024/04/17 01:41:46;;;;;;;4.00;1.00;;;;;;;;;;5183318;28;20003;-84
2024/04/17 01:44:22;;;;;;;12.00;4.07;;;;;;;;;;5184970;28;20012;-84
2024/04/17 01:47:05;;;;;;;12.45;2.60;;;;;;;;;;5170315;28;20020;-83
2024/04/17 01:49:37;;;;;;;3.05;1.45;;;;;;;;;;5177590;28;20008;-83
2024/04/17 01:52:12;;;;;;;4.78;1.63;;;;;;;;;;5156579;28;20295;-84
2024/04/17 01:54:51;;;;;;;8.15;3.78;;;;;;;;;;5183495;28;20011;-84
2024/04/17 01:57:30;;;;;;;4.93;1.50;;;;;;;;;;5187282;28;20015;-84
2024/04/17 02:00:05;;;;;;;1.48;1.00;;;;;;;;;;5158513;28;20028;-84
2024/04/17 02:02:46;;;;;;;1.90;1.58;;;;;;;;;;5187720;28;20007;-83
2024/04/17 02:05:20;;;;;;;2.20;1.45;;;;;;;;;;5179640;28;20028;-83
2024/04/17 02:07:54;;;;;;;1.75;0.85;;;;;;;;;;5188232;28;20007;-84
2024/04/17 02:10:26;;;;;;;12.43;5.18;;;;;;;;;;5122629;28;20017;-83
2024/04/17 02:13:04;;;;;;;4.30;1.85;;;;;;;;;;5155388;28;20062;-83
2024/04/17 02:15:36;;;;;;;11.50;4.20;;;;;;;;;;5180891;28;20001;-83
2024/04/17 02:18:11;;;;;;;5.15;1.35;;;;;;;;;;5182398;28;20652;-83
2024/04/17 02:20:50;;;;;;;8.38;1.00;;;;;;;;;;5186244;28;20008;-83
2024/04/17 02:23:28;;;;;;;6.78;1.85;;;;;;;;;;5154554;28;20009;-83
2024/04/17 02:26:05;;;;;;;1.58;1.02;;;;;;;;;;5170107;28;20020;-83
2024/04/17 02:28:43;;;;;;;1.75;1.55;;;;;;;;;;5180464;28;20003;-83
2024/04/17 02:31:15;;;;;;;3.08;1.40;;;;;;;;;;5180582;28;20001;-83
2024/04/17 02:33:54;;;;;;;7.50;3.90;;;;;;;;;;5203163;28;20005;-83
2024/04/17 02:36:30;;;;;;;2.58;1.80;;;;;;;;;;5183155;28;20028;-83
2024/04/17 02:39:03;;;;;;;1.95;1.23;;;;;;;;;;5177499;28;20001;-83
2024/04/17 02:41:39;;;;;;;5.25;1.35;;;;;;;;;;5186742;28;20009;-83
2024/04/17 02:44:16;;;;;;;11.20;1.13;;;;;;;;;;5182928;28;20004;-84
2024/04/17 02:46:50;;;;;;;9.60;3.67;;;;;;;;;;5192965;28;20066;-83
2024/04/17 02:49:24;;;;;;;8.13;3.92;;;;;;;;;;5183288;28;20037;-83
2024/04/17 02:51:59;;;;;;;3.75;1.55;;;;;;;;;;5181257;28;20013;-84
2024/04/17 02:54:33;;;;;;;6.40;3.80;;;;;;;;;;5177415;28;20040;-84
2024/04/17 02:57:10;;;;;;;1.75;1.38;;;;;;;;;;5173671;28;20079;-83
2024/04/17 02:59:50;;;;;;;3.25;1.80;;;;;;;;;;5187406;28;20027;-84
2024/04/17 03:02:24;;;;;;;8.32;3.70;;;;;;;;;;5182815;28;20036;-83
2024/04/17 03:05:00;;;;;;;1.75;1.40;;;;;;;;;;5182379;28;20025;-83
2024/04/17 03:07:36;;;;;;;1.63;0.85;;;;;;;;;;5140014;28;20012;-83
2024/04/17 03:10:12;;;;;;;1.67;1.33;;;;;;;;;;5180299;28;20001;-84
2024/04/17 03:12:46;;;;;;;4.35;2.05;;;;;;;;;;5190017;28;20012;-83
2024/04/17 03:15:21;;;;;;;3.42;1.58;;;;;;;;;;5171770;28;20009;-84
2024/04/17 03:17:55;;;;;;;6.97;1.58;;;;;;;;;;5174571;28;20009;-83
2024/04/17 03:20:28;;;;;;;;;;;;;;;;;;5177218;28;20032;-83
2024/04/17 03:23:04;;;;;;;2.97;1.90;;;;;;;;;;5176922;28;19992;-83
2024/04/17 03:25:41;;;;;;;5.68;2.42;;;;;;;;;;5182580;28;20063;-83
2024/04/17 03:28:17;;;;;;;9.23;4.00;;;;;;;;;;5176027;28;20062;-83
2024/04/17 03:30:53;;;;;;;2.13;1.40;;;;;;;;;;5171841;28;20025;-83
2024/04/17 03:33:30;;;;;;;2.92;1.58;;;;;;;;;;5189116;28;20141;-83
2024/04/17 03:36:03;;;;;;;3.83;2.72;;;;;;;;;;5167556;28;20019;-84
2024/04/17 03:38:38;;;;;;;10.38;7.43;;;;;;;;;;5170579;28;20001;-83
2024/04/17 03:41:13;;;;;;;5.53;3.10;;;;;;;;;;5186281;28;20020;-83
2024/04/17 03:43:47;;;;;;;8.73;5.45;;;;;;;;;;5165540;28;20017;-84
2024/04/17 03:46:26;;;;;;;1.48;1.27;;;;;;;;;;5144531;28;20015;-83
2024/04/17 03:49:04;;;;;;;2.20;1.38;;;;;;;;;;5174313;28;20015;-83
2024/04/17 03:51:36;;;;;;;4.72;1.13;;;;;;;;;;5182341;28;20066;-83
2024/04/17 03:54:14;;;;;;;1.70;1.17;;;;;;;;;;5183946;28;20062;-83
2024/04/17 03:56:49;;;;;;;5.15;1.95;;;;;;;;;;5181929;28;20035;-83
2024/04/17 03:59:21;;;;;;;3.05;1.45;;;;;;;;;;5194807;28;20020;-83
2024/04/17 04:02:03;;;;;;;4.32;2.10;;;;;;;;;;5175693;28;20023;-84
2024/04/17 04:04:40;;;;;;;1.58;1.20;;;;;;;;;;5188861;28;20019;-83
2024/04/17 04:07:17;;;;;;;13.73;1.95;;;;;;;;;;5185036;28;20028;-83
2024/04/17 04:09:50;;;;;;;11.63;4.75;;;;;;;;;;5176163;28;20684;-83
2024/04/17 04:12:26;;;;;;;7.10;3.03;;;;;;;;;;5183987;28;20008;-83
2024/04/17 04:14:58;;;;;;;2.00;1.80;;;;;;;;;;5180236;28;20008;-83
2024/04/17 04:17:35;;;;;;;5.00;1.65;;;;;;;;;;5176686;28;20066;-83
2024/04/17 04:20:14;;;;;;;2.05;1.23;;;;;;;;;;5186949;28;20012;-83
2024/04/17 04:22:52;;;;;;;7.65;2.25;;;;;;;;;;5152057;28;20009;-83
2024/04/17 04:25:29;;;;;;;2.53;1.55;;;;;;;;;;5144204;28;20005;-83
2024/04/17 04:28:06;;;;;;;4.97;1.77;;;;;;;;;;5164862;28;20020;-83
2024/04/17 04:30:41;;;;;;;3.97;3.42;;;;;;;;;;5183197;28;20040;-83
2024/04/17 04:33:18;;;;;;;6.15;2.72;;;;;;;;;;5197683;28;20074;-83
2024/04/17 04:35:54;;;;;;;6.22;2.67;;;;;;;;;;5167247;28;20047;-83
2024/04/17 04:38:28;;;;;;;7.22;3.00;;;;;;;;;;5178986;28;20008;-84
2024/04/17 04:41:02;;;;;;;12.60;7.45;;;;;;;;;;5173137;28;20029;-84
2024/04/17 04:43:37;;;;;;;2.28;1.90;;;;;;;;;;5168980;28;20022;-81
2024/04/17 04:46:11;;;;;;;0.82;0.82;;;;;;;;;;5176588;28;20008;-82
2024/04/17 04:48:53;;;;;;;2.70;2.05;;;;;;;;;;5149648;28;20087;-83
2024/04/17 04:51:31;;;;;;;4.30;1.92;;;;;;;;;;5163901;28;20502;-83
2024/04/17 04:54:05;;;;;;;9.93;5.43;;;;;;;;;;5158564;28;20026;-83
2024/04/17 04:56:41;;;;;;;4.40;2.10;;;;;;;;;;5180194;28;20711;-83
2024/04/17 04:59:21;;;;;;;4.88;1.80;;;;;;;;;;5162169;28;20504;-84
2024/04/17 05:01:56;;;;;;;11.30;5.43;;;;;;;;;;5172473;28;20009;-83
2024/04/17 05:04:34;;;;;;;3.45;2.03;;;;;;;;;;5155650;28;20024;-84
2024/04/17 05:07:10;;;;;;;5.43;2.25;;;;;;;;;;5168167;28;20484;-84
2024/04/17 05:09:48;;;;;;;6.82;2.25;;;;;;;;;;5152611;28;20018;-84
2024/04/17 05:12:22;;;;;;;9.63;1.88;;;;;;;;;;5171104;28;20082;-84
2024/04/17 05:14:57;;;;;;;1.23;1.05;;;;;;;;;;5140145;28;20597;-83
2024/04/17 05:17:32;;;;;;;12.60;5.35;;;;;;;;;;5164186;28;20486;-84
2024/04/17 05:20:17;;;;;;;3.90;1.80;;;;;;;;;;5167851;28;20133;-83
2024/04/17 05:22:52;;;;;;;16.08;5.70;;;;;;;;;;5162442;28;20816;-84
2024/04/17 05:25:29;;;;;;;2.92;1.50;;;;;;;;;;5160438;28;20013;-83
2024/04/17 05:28:01;;;;;;;8.70;4.68;;;;;;;;;;5164411;28;20012;-84
2024/04/17 05:30:36;;;;;;;2.75;2.53;;;;;;;;;;5170412;28;20008;-84
2024/04/17 05:33:08;;;;;;;10.90;2.40;;;;;;;;;;5156713;28;20031;-83
2024/04/17 05:35:45;;;;;;;6.43;1.80;;;;;;;;;;5167135;28;20024;-83
2024/04/17 05:38:19;;;;;;;11.05;1.58;;;;;;;;;;5146199;28;20028;-84
2024/04/17 05:40:57;;;;;;;5.38;1.48;;;;;;;;;;5154312;28;20009;-84
2024/04/17 05:43:29;;;;;;;6.10;1.83;;;;;;;;;;5175035;28;20013;-83
2024/04/17 05:46:08;;;;;;;3.33;2.22;;;;;;;;;;5179387;28;20008;-83
2024/04/17 05:48:43;;;;;;;0.60;0.60;;;;;;;;;;5174366;28;20022;-83
2024/04/17 05:51:20;;;;;;;9.02;2.40;;;;;;;;;;5185098;28;20705;-83
2024/04/17 05:53:54;;;;;;;1.58;0.85;;;;;;;;;;5167634;28;20013;-84
2024/04/17 05:56:29;;;;;;;10.48;4.93;;;;;;;;;;5174422;28;20429;-83
2024/04/17 05:59:02;;;;;;;8.70;2.60;;;;;;;;;;5164618;28;20060;-83
2024/04/17 06:01:37;;;;;;;7.22;4.20;;;;;;;;;;5170572;28;20021;-83
2024/04/17 06:04:11;;;;;;;5.15;1.42;;;;;;;;;;5183327;28;20466;-83
2024/04/17 06:06:48;;;;;;;6.95;1.55;;;;;;;;;;5159958;28;20010;-83
2024/04/17 06:09:20;;;;;;;7.50;2.30;;;;;;;;;;5177792;28;20329;-83
2024/04/17 06:11:55;;;;;;;7.88;4.63;;;;;;;;;;5159112;28;20157;-84
2024/04/17 06:14:29;;;;;;;4.18;2.35;;;;;;;;;;5155687;28;20086;-85
2024/04/17 06:17:23;;;;;;;5.38;1.15;;;;;;;;;;5159833;28;20040;-85
2024/04/17 06:19:55;;;;;;;1.52;1.27;;;;;;;;;;5153395;28;20019;-86
2024/04/17 06:22:37;;;;;;;5.93;3.08;;;;;;;;;;5159547;28;20021;-86
2024/04/17 06:25:09;;;;;;;3.47;1.55;;;;;;;;;;5172411;28;20007;-87
2024/04/17 06:27:47;;;;;;;3.83;1.38;;;;;;;;;;5158382;28;20023;-85
2024/04/17 06:30:23;;;;;;;4.95;2.35;;;;;;;;;;5159989;28;20086;-87
2024/04/17 06:32:58;;;;;;;5.72;3.72;;;;;;;;;;5173664;28;20008;-86
2024/04/17 06:35:35;;;;;;;2.55;1.38;;;;;;;;;;5146436;28;20044;-87
2024/04/17 06:38:13;;;;;;;1.75;1.33;;;;;;;;;;5165359;28;20018;-86
2024/04/17 06:40:47;;;;;;;3.22;1.42;;;;;;;;;;5165912;28;20365;-87
2024/04/17 06:43:23;;;;;;;5.10;3.03;;;;;;;;;;5157610;28;20090;-87
2024/04/17 06:45:55;;;;;;;3.70;1.35;;;;;;;;;;5165874;28;20025;-87
2024/04/17 06:48:29;;;;;;;1.60;1.13;;;;;;;;;;5169197;28;20116;-87
2024/04/17 06:51:03;;;;;;;3.05;1.55;;;;;;;;;;5173256;28;20004;-86
2024/04/17 06:53:41;;;;;;;3.60;2.45;;;;;;;;;;5132026;28;20013;-86
2024/04/17 06:56:13;;;;;;;3.65;1.58;;;;;;;;;;5147252;28;20035;-88
2024/04/17 06:58:52;;;;;;;2.85;1.30;;;;;;;;;;5168662;28;20016;-87
2024/04/17 07:01:25;;;;;;;3.40;1.63;;;;;;;;;;5135818;28;20043;-86
2024/04/17 07:04:04;;;;;;;1.65;1.20;;;;;;;;;;5168970;28;20027;-86
2024/04/17 07:06:36;;;;;;;6.80;3.90;;;;;;;;;;5155914;28;20018;-88
2024/04/17 07:09:16;;;;;;;2.70;0.90;;;;;;;;;;5142972;28;20032;-87
2024/04/17 07:11:51;;;;;;;4.82;1.70;;;;;;;;;;5154245;28;20339;-88
2024/04/17 07:14:30;;;;;;;6.45;4.05;;;;;;;;;;5128465;28;20016;-87
2024/04/17 07:17:04;;;;;;;4.82;2.35;;;;;;;;;;5158738;28;20420;-87
2024/04/17 07:19:39;;;;;;;8.38;4.20;;;;;;;;;;5139796;28;20027;-86
2024/04/17 07:22:14;;;;;;;1.17;1.00;;;;;;;;;;5182941;28;20023;-87
2024/04/17 07:24:53;;;;;;;3.83;1.40;;;;;;;;;;5164151;28;20012;-86
2024/04/17 07:27:26;;;;;;;1.38;1.17;;;;;;;;;;5165297;28;20637;-86
2024/04/17 07:30:00;;;;;;;1.20;1.10;;;;;;;;;;5132072;28;20028;-87
2024/04/17 07:32:36;;;;;;;3.22;2.42;;;;;;;;;;5129030;28;20499;-87
2024/04/17 07:35:11;;;;;;;2.22;1.40;;;;;;;;;;5148228;28;20050;-87
2024/04/17 07:37:46;;;;;;;5.00;2.20;;;;;;;;;;5164968;28;20032;-86
2024/04/17 07:40:24;;;;;;;1.75;1.00;;;;;;;;;;5163327;28;20012;-87
2024/04/17 07:42:59;;;;;;;1.35;0.93;;;;;;;;;;5164958;28;20019;-85
2024/04/17 07:45:34;;;;;;;2.15;0.75;;;;;;;;;;5141551;28;20016;-87
2024/04/17 07:48:10;;;;;;;0.88;0.88;;;;;;;;;;5165387;28;20020;-85
2024/04/17 07:51:09;;;;;;;2.10;1.70;;;;;;;;;;5166347;28;20004;-86
2024/04/17 07:53:41;;;;;;;0.70;0.70;;;;;;;;;;5119813;28;20086;-87
2024/04/17 07:56:20;;;;;;;1.08;0.80;;;;;;;;;;5153497;28;20016;-87
2024/04/17 07:58:52;;;;;;;1.45;1.17;;;;;;;;;;5160877;28;20048;-86
2024/04/17 08:01:27;;;;;;;3.85;1.58;;;;;;;;;;5152361;28;20016;-86
2024/04/17 08:04:01;;;;;;;1.60;1.17;;;;;;;;;;5171276;28;20089;-85
2024/04/17 08:06:40;;;;;;;0.75;0.70;;;;;;;;;;5131106;28;20033;-87
2024/04/17 08:09:12;;;;;;;4.20;1.50;;;;;;;;;;5166383;28;20008;-85
2024/04/17 08:11:54;;;;;;;0.45;0.45;;;;;;;;;;5170409;28;20079;-85
2024/04/17 08:14:32;;;;;;;1.33;0.60;;;;;;;;;;5154936;28;20059;-86
2024/04/17 08:17:07;;;;;;;1.95;1.00;;;;;;;;;;5162191;28;20032;-84
2024/04/17 08:19:41;;;;;;;1.92;1.10;;;;;;;;;;5163514;28;20098;-87
2024/04/17 08:22:18;;;;;;;2.17;0.70;;;;;;;;;;5163886;28;20539;-85
2024/04/17 08:24:54;;;;;;;0.40;0.40;;;;;;;;;;5178625;28;20058;-85
2024/04/17 08:27:33;;;;;;;1.42;1.33;;;;;;;;;;5174587;28;20012;-88
2024/04/17 08:30:07;;;;;;;1.17;1.00;;;;;;;;;;5157271;28;20013;-86
2024/04/17 08:32:47;;;;;;;1.55;0.60;;;;;;;;;;5164720;28;20004;-85
2024/04/17 08:35:21;;;;;;;2.15;0.95;;;;;;;;;;5163988;28;20012;-86
2024/04/17 08:37:57;;;;;;;1.05;0.70;;;;;;;;;;5172320;28;20016;-87
2024/04/17 08:40:29;;;;;;;1.52;1.20;;;;;;;;;;5144542;28;20017;-85
2024/04/17 08:43:22;;;;;;;0.60;0.60;;;;;;;;;;5168626;28;20063;-85
2024/04/17 08:45:59;;;;;;;0.98;0.60;;;;;;;;;;5166966;28;20024;-86
2024/04/17 08:48:35;;;;;;;2.17;1.00;;;;;;;;;;5175678;28;20091;-84
2024/04/17 08:51:11;;;;;;;3.20;1.10;;;;;;;;;;5147082;28;20027;-87
2024/04/17 08:53:46;;;;;;;2.45;1.10;;;;;;;;;;5151692;28;20023;-84
2024/04/17 08:56:17;;;;;;;;;;;;;;;;;;5173090;28;20027;-87
2024/04/17 08:58:57;;;;;;;1.98;0.80;;;;;;;;;;5169787;28;19938;-84
2024/04/17 09:01:33;;;;;;;0.75;0.45;;;;;;;;;;5153617;28;20071;-87
2024/04/17 09:04:10;;;;;;;2.47;1.13;;;;;;;;;;5178750;28;20012;-86
2024/04/17 09:06:47;;;;;;;1.60;1.00;;;;;;;;;;5159331;28;20028;-86
2024/04/17 09:09:26;;;;;;;0.40;0.40;;;;;;;;;;5162503;28;20021;-86
2024/04/17 09:12:03;;;;;;;1.95;1.00;;;;;;;;;;5175611;28;20008;-84
2024/04/17 09:14:40;;;;;;;0.40;0.40;;;;;;;;;;5167910;28;20021;-84
2024/04/17 09:17:31;;;;;;;1.00;0.63;;;;;;;;;;5172609;28;20452;-83
2024/04/17 09:20:06;;;;;;;0.95;0.50;;;;;;;;;;5160424;28;20023;-86
2024/04/17 09:22:41;;;;;;;;;;;;;;;;;;5169248;28;20012;-86
2024/04/17 09:25:19;;;;;;;0.30;0.30;;;;;;;;;;5170291;28;19932;-84
2024/04/17 09:27:57;;;;;;;1.70;0.68;;;;;;;;;;5155715;28;20075;-85
2024/04/17 09:30:34;;;;;;;0.30;0.30;;;;;;;;;;5171732;28;20012;-83
2024/04/17 09:33:16;;;;;;;0.88;0.80;;;;;;;;;;5163363;28;20038;-84
2024/04/17 09:35:49;;;;;;;1.88;0.85;;;;;;;;;;5164238;28;20013;-83
2024/04/17 09:38:30;;;;;;;1.60;0.95;;;;;;;;;;5171197;28;20016;-86
2024/04/17 09:41:09;;;;;;;2.35;0.90;;;;;;;;;;5158984;28;20013;-86
2024/04/17 09:43:49;;;;;;;2.90;1.13;;;;;;;;;;5165981;28;20027;-85
2024/04/17 09:46:25;;;;;;;2.60;0.88;;;;;;;;;;5199383;28;20027;-85
2024/04/17 09:49:02;;;;;;;4.03;1.27;;;;;;;;;;5163082;28;20024;-85
2024/04/17 09:51:36;;;;;;;1.27;0.80;;;;;;;;;;5178272;28;20400;-84
2024/04/17 09:54:20;;;;;;;1.70;1.13;;;;;;;;;;5190525;28;20097;-85
2024/04/17 09:56:53;;;;;;;3.90;1.23;;;;;;;;;;5166206;28;20012;-80
2024/04/17 09:59:29;;;;;;;3.00;1.10;;;;;;;;;;5149040;28;20892;-80
2024/04/17 10:02:08;;;;;;;3.17;1.40;;;;;;;;;;5159172;28;20035;-80
2024/04/17 10:04:43;;;;;;;3.35;1.48;;;;;;;;;;5152893;28;20024;-80
2024/04/17 10:07:18;;;;;;;2.85;1.23;;;;;;;;;;5166219;28;20012;-79
2024/04/17 10:09:53;;;;;;;3.95;1.38;;;;;;;;;;5158410;28;20025;-80
2024/04/17 10:12:36;;;;;;;3.50;1.40;;;;;;;;;;5157278;28;20013;-79
2024/04/17 10:15:10;;;;;;;4.18;1.58;;;;;;;;;;5158431;28;20009;-79
2024/04/17 10:17:49;;;;;;;2.92;1.25;;;;;;;;;;5132478;28;20030;-79
2024/04/17 10:20:47;;;;;;;2.83;1.75;;;;;;;;;;5152393;28;20081;-80
2024/04/17 10:23:19;;;;;;;3.38;1.40;;;;;;;;;;5165106;28;20415;-79
2024/04/17 10:25:56;;;;;;;5.13;2.08;;;;;;;;;;5159634;28;20012;-79
2024/04/17 10:28:32;;;;;;;3.15;1.40;;;;;;;;;;5157306;28;20024;-79
2024/04/17 10:31:10;;;;;;;2.78;1.20;;;;;;;;;;5140544;28;20025;-79
2024/04/17 10:33:44;;;;;;;4.63;1.60;;;;;;;;;;5150415;28;20383;-80
2024/04/17 10:36:23;;;;;;;3.15;1.40;;;;;;;;;;5166593;28;20108;-79
2024/04/17 10:38:59;;;;;;;4.07;1.73;;;;;;;;;;5151917;28;20099;-81
2024/04/17 10:41:34;;;;;;;2.13;1.15;;;;;;;;;;5161033;28;20017;-79
2024/04/17 10:44:09;;;;;;;3.63;1.48;;;;;;;;;;5151881;28;20014;-80
2024/04/17 10:46:49;;;;;;;3.47;1.38;;;;;;;;;;5166435;28;20019;-79
2024/04/17 10:49:27;;;;;;;5.47;1.65;;;;;;;;;;5150679;28;22667;-79
2024/04/17 10:52:02;;;;;;;4.15;1.60;;;;;;;;;;5147738;28;20008;-79
2024/04/17 10:54:37;;;;;;;3.28;1.20;;;;;;;;;;5157321;28;20463;-78
2024/04/17 10:57:15;;;;;;;3.30;1.27;;;;;;;;;;5161178;28;20027;-78
2024/04/17 10:59:48;;;;;;;4.78;1.55;;;;;;;;;;5166790;28;20031;-79
2024/04/17 11:02:27;;;;;;;6.72;1.83;;;;;;;;;;5152045;28;20072;-79
2024/04/17 11:05:06;;;;;;;3.50;1.25;;;;;;;;;;5149822;28;20036;-78
2024/04/17 11:07:43;;;;;;;5.22;1.38;;;;;;;;;;5179524;28;20070;-79
2024/04/17 11:10:16;;;;;;;6.85;1.40;;;;;;;;;;5172573;28;20012;-79
2024/04/17 11:12:51;;;;;;;2.58;1.23;;;;;;;;;;5156057;28;20031;-80
2024/04/17 11:15:24;;;;;;;5.10;1.85;;;;;;;;;;5151511;28;20030;-79
2024/04/17 11:17:59;;;;;;;4.35;2.13;;;;;;;;;;5158964;28;20030;-78
2024/04/17 11:20:40;;;;;;;3.05;1.20;;;;;;;;;;5165350;28;20009;-82
2024/04/17 11:23:20;;;;;;;3.95;1.25;;;;;;;;;;5151492;28;20012;-79
2024/04/17 11:25:57;;;;;;;4.05;1.38;;;;;;;;;;5170543;28;20021;-79
2024/04/17 11:28:33;;;;;;;3.25;1.50;;;;;;;;;;5146517;28;20012;-79
2024/04/17 11:31:09;;;;;;;2.90;1.33;;;;;;;;;;5144446;28;20031;-79
2024/04/17 11:33:44;;;;;;;4.68;1.75;;;;;;;;;;5139227;28;20008;-79
2024/04/17 11:36:22;;;;;;;3.15;1.20;;;;;;;;;;5144124;28;20004;-79
2024/04/17 11:38:54;;;;;;;5.15;2.05;;;;;;;;;;5148193;28;20017;-79
2024/04/17 11:41:32;;;;;;;2.55;1.30;;;;;;;;;;5148348;28;20012;-80
2024/04/17 11:44:04;;;;;;;1.85;1.25;;;;;;;;;;5141093;28;20082;-79
2024/04/17 11:46:40;;;;;;;3.08;1.40;;;;;;;;;;5138038;28;20016;-79
2024/04/17 11:49:17;;;;;;;4.75;1.40;;;;;;;;;;5145169;28;20368;-79
2024/04/17 11:52:00;;;;;;;3.17;1.40;;;;;;;;;;5151867;28;20027;-79
2024/04/17 11:54:32;;;;;;;3.70;1.63;;;;;;;;;;5160726;28;20012;-79
2024/04/17 11:57:08;;;;;;;3.58;1.27;;;;;;;;;;5148506;28;20017;-79
2024/04/17 11:59:47;;;;;;;4.43;1.48;;;;;;;;;;5148084;28;20070;-79
2024/04/17 12:02:23;;;;;;;4.88;1.33;;;;;;;;;;5154431;28;20020;-79
2024/04/17 12:04:55;;;;;;;4.45;1.38;;;;;;;;;;5145118;28;20360;-78
2024/04/17 12:07:33;;;;;;;2.83;1.13;;;;;;;;;;5139829;28;20035;-79
2024/04/17 12:10:07;;;;;;;2.47;1.10;;;;;;;;;;5148754;28;20040;-80
2024/04/17 12:12:49;;;;;;;4.60;1.65;;;;;;;;;;5143534;28;20049;-78
2024/04/17 12:15:21;;;;;;;3.22;1.67;;;;;;;;;;5170234;28;20021;-80
2024/04/17 12:17:56;;;;;;;2.97;1.17;;;;;;;;;;5146037;28;20019;-79
2024/04/17 12:20:33;;;;;;;4.32;1.23;;;;;;;;;;5140779;28;20367;-79
2024/04/17 12:29:07;;;;;;;3.80;1.50;;;;;;;;;;5146225;28;20452;-79
2024/04/17 12:31:47;;;;;;;4.32;1.10;;;;;;;;;;5155290;28;20017;-78
2024/04/17 12:34:21;;;;;;;3.08;1.00;;;;;;;;;;5145230;28;20044;-79
2024/04/17 12:37:00;;;;;;;2.00;0.85;;;;;;;;;;5183702;28;20429;-79
2024/04/17 12:39:39;;;;;;;2.40;1.02;;;;;;;;;;5150408;28;20483;-79
2024/04/17 12:42:15;;;;;;;;;;;;;;;;;;5152328;28;20017;-79
2024/04/17 12:44:51;;;;;;;1.30;0.73;;;;;;;;;;5139021;28;20013;-79
2024/04/17 12:47:26;;;;;;;3.10;1.20;;;;;;;;;;5154588;28;20019;-75
2024/04/17 12:50:00;;;;;;;;;;;;;;;;;;5128945;28;20004;-79
2024/04/17 12:52:35;;;;;;;2.85;1.25;;;;;;;;;;5142568;28;19936;-79
2024/04/17 12:55:10;;;;;;;;;;;;;;;;;;5144614;28;20445;-79
2024/04/17 12:57:49;;;;;;;3.65;1.10;;;;;;;;;;5144357;28;20006;-79
2024/04/17 13:00:24;;;;;;;2.13;0.90;;;;;;;;;;5158765;28;20024;-80
2024/04/17 13:03:00;;;;;;;3.30;1.10;;;;;;;;;;5157411;28;20025;-79
2024/04/17 13:05:38;;;;;;;2.85;1.00;;;;;;;;;;5163252;28;20020;-78
2024/04/17 13:08:17;;;;;;;4.13;1.27;;;;;;;;;;5173848;28;20492;-78
2024/04/17 13:10:58;;;;;;;2.45;1.00;;;;;;;;;;5155539;28;20009;-79
2024/04/17 13:13:37;;;;;;;2.92;1.00;;;;;;;;;;5145605;28;20486;-79
2024/04/17 13:16:12;;;;;;;2.15;0.90;;;;;;;;;;5123305;28;22721;-79
2024/04/17 13:18:45;;;;;;;3.45;1.08;;;;;;;;;;5153769;28;21110;-79
2024/04/17 13:21:24;;;;;;;2.97;1.05;;;;;;;;;;5169118;28;20349;-78
2024/04/17 13:23:57;;;;;;;2.20;0.70;;;;;;;;;;5160895;28;20019;-78
2024/04/17 13:26:32;;;;;;;2.45;0.70;;;;;;;;;;5171715;28;20009;-81
2024/04/17 13:29:10;;;;;;;0.55;0.40;;;;;;;;;;5162726;28;20008;-78
2024/04/17 13:31:47;;;;;;;0.88;0.40;;;;;;;;;;5166615;28;20462;-78
2024/04/17 13:34:23;;;;;;;2.35;1.02;;;;;;;;;;5160697;28;20045;-78
2024/04/17 13:36:58;;;;;;;1.88;0.90;;;;;;;;;;5156399;28;20027;-78
2024/04/17 13:39:33;;;;;;;1.13;0.60;;;;;;;;;;5150170;28;20035;-80
2024/04/17 13:42:08;;;;;;;2.45;0.80;;;;;;;;;;5136364;28;20809;-80
2024/04/17 13:44:49;;;;;;;3.70;1.15;;;;;;;;;;5140989;28;20004;-79
2024/04/17 13:47:26;;;;;;;3.15;0.80;;;;;;;;;;5149297;28;20020;-81
2024/04/17 13:49:59;;;;;;;2.47;0.80;;;;;;;;;;5148442;28;20041;-81
2024/04/17 13:52:36;;;;;;;1.50;0.77;;;;;;;;;;5155289;28;20009;-81
2024/04/17 13:55:09;;;;;;;4.53;1.15;;;;;;;;;;5160091;28;20013;-79
2024/04/17 13:57:48;;;;;;;2.38;0.82;;;;;;;;;;5150834;28;20019;-81
2024/04/17 14:00:27;;;;;;;1.55;0.75;;;;;;;;;;5152651;28;20093;-79
2024/04/17 14:03:06;;;;;;;3.13;1.10;;;;;;;;;;5117063;28;20026;-79
2024/04/17 14:05:40;;;;;;;2.38;0.70;;;;;;;;;;5162673;28;20036;-79
2024/04/17 14:08:15;;;;;;;2.30;0.80;;;;;;;;;;5161035;28;20087;-79
2024/04/17 14:10:58;;;;;;;2.33;0.90;;;;;;;;;;5156178;28;20009;-80
2024/04/17 14:13:35;;;;;;;2.58;0.80;;;;;;;;;;5160736;28;20395;-79
2024/04/17 14:16:12;;;;;;;2.13;0.88;;;;;;;;;;5163637;28;20053;-80
2024/04/17 14:18:47;;;;;;;1.67;0.73;;;;;;;;;;5160497;28;20526;-80
2024/04/17 14:21:27;;;;;;;3.08;0.93;;;;;;;;;;5160054;28;20125;-80
2024/04/17 14:24:03;;;;;;;2.10;0.82;;;;;;;;;;5151048;28;20023;-77
2024/04/17 14:26:37;;;;;;;3.55;0.93;;;;;;;;;;5171253;28;20042;-87
2024/04/17 14:29:11;;;;;;;2.03;1.02;;;;;;;;;;5152982;28;21175;-77
2024/04/17 14:31:49;;;;;;;2.80;1.15;;;;;;;;;;5154241;28;20016;-82
2024/04/17 14:34:27;;;;;;;3.97;0.95;;;;;;;;;;5159581;28;20009;-82
2024/04/17 14:37:03;;;;;;;3.10;0.90;;;;;;;;;;5134552;28;20094;-80
2024/04/17 14:39:37;;;;;;;2.58;1.30;;;;;;;;;;5157891;28;20013;-80
2024/04/17 14:42:14;;;;;;;2.35;0.82;;;;;;;;;;5128952;28;20045;-80
2024/04/17 14:44:59;;;;;;;4.22;0.88;;;;;;;;;;5178135;28;20013;-83
2024/04/17 14:47:36;;;;;;;2.47;0.85;;;;;;;;;;5159781;28;20012;-81
2024/04/17 14:50:11;;;;;;;2.42;0.85;;;;;;;;;;5151712;28;20025;-81
2024/04/17 14:52:43;;;;;;;;;;;;;;;;;;5163463;28;20441;-82
2024/04/17 14:55:20;;;;;;;2.38;0.80;;;;;;;;;;5153898;28;19931;-83
2024/04/17 14:57:55;;;;;;;1.85;0.80;;;;;;;;;;5160769;28;20048;-83
2024/04/17 15:00:30;;;;;;;1.80;0.68;;;;;;;;;;5156260;28;20064;-83
2024/04/17 15:03:08;;;;;;;1.35;0.80;;;;;;;;;;5153325;28;20776;-83
2024/04/17 15:05:43;;;;;;;;;;;;;;;;;;5153924;28;20009;-89
2024/04/17 15:08:20;;;;;;;3.40;0.85;;;;;;;;;;5150537;28;19943;-84
2024/04/17 15:11:04;;;;;;;2.20;0.75;;;;;;;;;;5159353;28;20012;-84
2024/04/17 15:13:41;;;;;;;1.80;0.70;;;;;;;;;;5148753;28;20024;-80
2024/04/17 15:16:21;;;;;;;2.20;0.80;;;;;;;;;;5150623;28;20045;-84
2024/04/17 15:18:57;;;;;;;2.20;0.68;;;;;;;;;;5158706;28;20027;-83
2024/04/17 15:21:32;;;;;;;0.82;0.50;;;;;;;;;;5145515;28;20016;-82
2024/04/17 15:24:04;;;;;;;;;;;;;;;;;;5172982;28;20404;-83
2024/04/17 15:26:39;;;;;;;1.50;0.70;;;;;;;;;;5152947;28;19931;-82
2024/04/17 15:29:15;;;;;;;1.33;0.80;;;;;;;;;;5149872;28;20086;-82
2024/04/17 15:31:51;;;;;;;1.70;0.75;;;;;;;;;;5160681;28;20090;-83
2024/04/17 15:34:26;;;;;;;1.00;0.80;;;;;;;;;;5155959;28;20015;-83
2024/04/17 15:37:04;;;;;;;;;;;;;;;;;;5154914;28;20017;-82
2024/04/17 15:39:35;;;;;;;2.88;0.93;;;;;;;;;;5158297;28;19931;-82
2024/04/17 15:42:14;;;;;;;2.63;1.65;;;;;;;;;;5148133;28;20013;-82
2024/04/17 15:44:49;;;;;;;3.67;1.75;;;;;;;;;;5149044;28;20013;-82
2024/04/17 15:47:24;;;;;;;1.77;1.23;;;;;;;;;;5151229;28;20091;-83
2024/04/17 15:50:04;;;;;;;2.08;1.20;;;;;;;;;;5138499;28;20013;-83
2024/04/17 15:52:41;;;;;;;1.98;0.90;;;;;;;;;;5154062;28;20020;-83
2024/04/17 15:55:14;;;;;;;2.45;1.02;;;;;;;;;;5148346;28;20037;-82
2024/04/17 15:57:52;;;;;;;2.05;0.93;;;;;;;;;;5124844;28;20013;-83
2024/04/17 16:00:25;;;;;;;1.58;1.05;;;;;;;;;;5148351;28;20503;-83